< < Back
Terminal Aerodrome Forecast


Current Version              Previous Versions:   1  2  3  4  5  6  7  8  9  

Terminal Aerodrome Forecast

660
FTUS42 KILM 271720
TAFILM
TAF
KILM 271720Z 2718/2818 15012G17KT P6SM SCT040 BKN250
     FM280200 VRB03KT P6SM SKC
      TEMPO 2808/2811 5SM BR
     FM281200 19008KT P6SM FEW025 SCT250=



Latest METAR

355
SAUS70 KWBC 281400 RRH
MTRILM
METAR KILM 281353Z AUTO 16006KT 10SM CLR 26/17 A3025 RMK AO2 SLP244
T02560167


USA.gov is the U.S. government's official web portal to all federal, state and local government web resources and services.